createdAt,value
2019-04-26T00:02:54.494Z,69.50
2019-04-26T00:07:58.355Z,68.70
2019-04-26T00:13:12.429Z,68.90
2019-04-26T00:18:17.369Z,69.20
2019-04-26T00:23:22.618Z,68.60
2019-04-26T00:28:26.025Z,69.10
2019-04-26T00:33:29.659Z,68.00
2019-04-26T00:38:33.015Z,69.20
2019-04-26T00:48:41.562Z,68.50
2019-04-26T00:53:47.003Z,68.40
2019-04-26T00:58:51.423Z,69.00
2019-04-26T01:03:54.775Z,68.90
2019-04-26T01:08:59.278Z,69.40
2019-04-26T01:14:02.830Z,70.10
2019-04-26T01:19:09.715Z,69.60
2019-04-26T01:24:15.559Z,69.40
2019-04-26T01:29:21.846Z,69.50
2019-04-26T01:34:28.302Z,69.20
2019-04-26T01:39:33.930Z,69.30
2019-04-26T01:45:15.289Z,69.50
2019-04-26T01:50:23.921Z,68.30
2019-04-26T01:55:31.311Z,68.80
2019-04-26T02:00:49.350Z,68.30
2019-04-26T02:05:54.018Z,68.90
2019-04-26T02:10:57.321Z,68.50
2019-04-26T02:16:00.776Z,69.00
2019-04-26T02:21:28.502Z,69.20
2019-04-26T02:26:38.609Z,70.20
2019-04-26T02:31:49.874Z,69.40
2019-04-26T02:36:59.733Z,69.40
2019-04-26T02:42:10.220Z,69.60
2019-04-26T02:48:16.312Z,69.50
2019-04-26T02:53:45.011Z,69.60
2019-04-26T02:59:23.512Z,69.50
2019-04-26T03:04:31.006Z,69.90
2019-04-26T03:09:43.017Z,70.10
2019-04-26T03:15:14.079Z,70.20
2019-04-26T03:20:17.452Z,70.40
2019-04-26T03:26:23.024Z,70.70
2019-04-26T03:32:17.980Z,69.60
2019-04-26T03:38:02.214Z,70.70
2019-04-26T03:43:46.319Z,70.60
2019-04-26T03:49:24.073Z,70.60
2019-04-26T03:54:32.168Z,70.50
2019-04-26T04:00:18.377Z,69.30
2019-04-26T04:05:40.131Z,69.70
2019-04-26T04:10:55.899Z,69.20
2019-04-26T04:16:00.362Z,68.30
2019-04-26T04:21:46.108Z,67.70
2019-04-26T04:27:22.154Z,67.30
2019-04-26T04:32:52.024Z,66.70
2019-04-26T04:38:11.302Z,66.20
2019-04-26T04:43:36.736Z,65.70
2019-04-26T04:49:17.271Z,65.30
2019-04-26T04:55:06.342Z,64.80
2019-04-26T05:00:27.515Z,64.20
2019-04-26T05:06:07.815Z,63.40
2019-04-26T05:11:31.493Z,62.60
2019-04-26T05:17:31.702Z,61.60
2019-04-26T05:23:38.209Z,60.60
2019-04-26T05:29:17.432Z,59.50
2019-04-26T05:34:57.863Z,58.80
2019-04-26T05:40:19.909Z,58.00
2019-04-26T05:46:17.270Z,57.30
2019-04-26T05:52:26.383Z,57.20
2019-04-26T05:58:02.916Z,56.50
2019-04-26T06:03:42.052Z,55.50
2019-04-26T06:09:52.832Z,54.40
2019-04-26T06:15:38.593Z,53.60
2019-04-26T06:20:52.623Z,52.20
2019-04-26T06:27:10.365Z,51.10
2019-04-26T06:32:29.974Z,51.20
2019-04-26T06:37:51.322Z,50.20
2019-04-26T06:43:14.033Z,50.80
2019-04-26T06:48:33.187Z,50.50
2019-04-26T06:54:20.729Z,49.50
2019-04-26T06:59:36.766Z,48.80
2019-04-26T07:05:17.373Z,48.20
2019-04-26T07:11:10.651Z,46.80
2019-04-26T07:16:33.772Z,44.80
2019-04-26T07:22:16.027Z,44.10
2019-04-26T07:28:06.107Z,43.80
2019-04-26T07:34:07.259Z,44.00
2019-04-26T07:40:19.290Z,44.40
2019-04-26T07:46:27.488Z,43.60
2019-04-26T07:52:37.931Z,41.90
2019-04-26T07:58:35.106Z,42.30
2019-04-26T08:03:54.893Z,41.60
2019-04-26T08:09:08.176Z,40.70
2019-04-26T08:14:18.127Z,39.60
2019-04-26T08:19:27.885Z,38.20
2019-04-26T08:24:33.590Z,36.80
2019-04-26T08:29:43.793Z,37.50
2019-04-26T08:35:02.400Z,37.20
2019-04-26T08:40:07.756Z,36.90
2019-04-26T08:45:31.936Z,37.10
2019-04-26T08:50:42.217Z,37.00
2019-04-26T08:55:49.504Z,36.40
2019-04-26T09:01:18.227Z,35.70
2019-04-26T09:06:46.247Z,34.80
2019-04-26T09:11:59.944Z,34.90
2019-04-26T09:16:59.853Z,34.50
2019-04-26T09:22:15.531Z,35.20
2019-04-26T09:27:26.351Z,35.30
2019-04-26T09:32:52.062Z,34.40
2019-04-26T09:37:55.425Z,35.30
2019-04-26T09:43:10.385Z,35.00
2019-04-26T09:48:20.447Z,34.50
2019-04-26T09:53:25.157Z,34.50
2019-04-26T09:58:30.741Z,33.90
2019-04-26T10:03:34.494Z,33.70
2019-04-26T10:08:38.059Z,34.30
2019-04-26T10:14:04.253Z,34.80
2019-04-26T10:19:11.838Z,34.70
2019-04-26T10:24:15.465Z,34.30
2019-04-26T10:29:21.799Z,33.30
2019-04-26T10:34:24.140Z,33.20
2019-04-26T10:39:28.596Z,33.40
2019-04-26T10:44:35.846Z,33.60
2019-04-26T10:49:42.691Z,33.40
2019-04-26T10:54:50.216Z,32.50
2019-04-26T10:59:56.195Z,32.10
2019-04-26T11:04:59.502Z,32.00
2019-04-26T11:10:04.354Z,30.90
2019-04-26T11:15:08.522Z,31.40
2019-04-26T11:20:12.352Z,31.20
2019-04-26T11:25:15.668Z,30.30
2019-04-26T11:30:21.204Z,30.10
2019-04-26T11:35:25.625Z,30.90
2019-04-26T11:40:29.457Z,31.10
2019-04-26T11:45:32.895Z,30.00
2019-04-26T11:50:36.175Z,30.30
2019-04-26T11:55:39.575Z,30.20
2019-04-26T12:00:49.458Z,29.70
2019-04-26T12:06:17.787Z,29.30
2019-04-26T12:11:31.497Z,29.50
2019-04-26T12:16:26.158Z,29.60
2019-04-26T12:21:30.637Z,29.20
2019-04-26T12:26:42.624Z,29.40
2019-04-26T12:31:42.517Z,29.70
2019-04-26T12:36:47.026Z,29.60
2019-04-26T12:41:51.611Z,29.50
2019-04-26T12:47:03.427Z,29.40
2019-04-26T12:52:07.371Z,27.90
2019-04-26T12:57:10.969Z,29.40
2019-04-26T13:02:16.561Z,29.30
2019-04-26T13:07:23.667Z,29.30
2019-04-26T13:12:36.545Z,29.00
2019-04-26T13:17:43.918Z,28.20
2019-04-26T13:22:50.210Z,28.20
2019-04-26T13:27:53.376Z,27.60
2019-04-26T13:32:56.753Z,28.10
2019-04-26T13:38:00.149Z,28.50
2019-04-26T13:43:04.572Z,28.10
2019-04-26T13:48:27.487Z,27.10
2019-04-26T13:53:31.170Z,27.10
2019-04-26T13:58:34.564Z,27.40
2019-04-26T14:03:37.898Z,27.60
2019-04-26T14:08:41.254Z,26.20
2019-04-26T14:13:44.612Z,26.60
2019-04-26T14:18:47.982Z,27.00
2019-04-26T14:24:23.863Z,26.60
2019-04-26T14:29:31.947Z,26.60
2019-04-26T14:34:36.195Z,26.50
2019-04-26T14:39:50.140Z,25.80
2019-04-26T14:44:49.645Z,21.90
2019-04-26T14:49:53.299Z,19.30
2019-04-26T14:54:57.130Z,18.30
2019-04-26T15:00:00.586Z,17.90
2019-04-26T15:05:12.208Z,17.70
2019-04-26T15:10:18.206Z,17.30
2019-04-26T15:15:21.767Z,16.50
2019-04-26T15:20:28.434Z,16.40
2019-04-26T15:25:33.489Z,16.20
2019-04-26T15:30:43.528Z,15.80
2019-04-26T15:35:43.072Z,15.50
2019-04-26T15:41:14.188Z,15.30
2019-04-26T15:46:33.863Z,15.60
2019-04-26T15:51:37.569Z,15.70
2019-04-26T15:56:41.029Z,16.00
2019-04-26T16:01:47.697Z,15.90
2019-04-26T16:06:50.078Z,16.10
2019-04-26T16:11:55.262Z,16.80
2019-04-26T16:17:03.189Z,17.60
2019-04-26T16:22:05.298Z,18.30
2019-04-26T16:27:08.802Z,19.10
2019-04-26T16:32:32.532Z,20.00
2019-04-26T16:37:36.103Z,21.50
2019-04-26T16:42:39.401Z,21.80
2019-04-26T16:47:47.318Z,22.40
2019-04-26T16:52:48.765Z,22.20
2019-04-26T16:57:55.740Z,22.60
2019-04-26T17:03:02.971Z,23.30
2019-04-26T17:08:09.998Z,22.90
2019-04-26T17:13:10.349Z,23.30
2019-04-26T17:18:13.692Z,23.70
2019-04-26T17:23:37.287Z,24.80
2019-04-26T17:28:40.932Z,26.60
2019-04-26T17:33:44.619Z,26.70
2019-04-26T17:38:50.428Z,28.00
2019-04-26T17:44:06.132Z,28.70
2019-04-26T17:49:00.522Z,29.20
2019-04-26T17:54:21.231Z,29.90
2019-04-26T17:59:12.208Z,30.40
2019-04-26T18:04:15.004Z,31.30
2019-04-26T18:09:39.013Z,31.80
2019-04-26T18:14:29.867Z,33.10
2019-04-26T18:19:48.819Z,33.40
2019-04-26T18:24:52.339Z,34.80
2019-04-26T18:29:59.755Z,35.60
2019-04-26T18:35:02.363Z,36.60
2019-04-26T18:40:05.888Z,40.50
2019-04-26T18:45:09.709Z,39.70
2019-04-26T18:50:14.245Z,38.90
2019-04-26T18:55:29.010Z,39.80
2019-04-26T19:00:35.158Z,39.40
2019-04-26T19:05:38.475Z,39.40
2019-04-26T19:10:43.564Z,39.50
2019-04-26T19:15:56.941Z,39.90
2019-04-26T19:21:17.610Z,39.80
2019-04-26T19:26:32.354Z,40.10
2019-04-26T19:31:27.460Z,40.60
2019-04-26T19:36:32.777Z,41.70
2019-04-26T19:41:36.357Z,41.70
2019-04-26T19:46:54.071Z,41.80
2019-04-26T19:52:18.202Z,42.10
2019-04-26T19:57:26.377Z,42.50
2019-04-26T20:02:36.258Z,43.00
2019-04-26T20:07:35.383Z,43.00
2019-04-26T20:12:39.031Z,43.00
2019-04-26T20:17:42.372Z,43.30
2019-04-26T20:22:45.655Z,44.80
2019-04-26T20:27:53.702Z,45.20
2019-04-26T20:32:56.346Z,45.60
2019-04-26T20:38:04.561Z,45.80
2019-04-26T20:43:07.052Z,46.30
2019-04-26T20:48:11.476Z,46.20
2019-04-26T20:53:14.827Z,46.10
2019-04-26T20:58:19.432Z,46.00
2019-04-26T21:03:27.534Z,46.30
2019-04-26T21:08:28.951Z,46.10
2019-04-26T21:13:32.481Z,46.30
2019-04-26T21:18:39.993Z,46.30
2019-04-26T21:23:44.005Z,46.40
2019-04-26T21:29:19.690Z,46.40
2019-04-26T21:34:24.528Z,46.80
2019-04-26T21:39:50.564Z,46.50
2019-04-26T21:44:54.853Z,46.50
2019-04-26T21:50:00.730Z,45.70
2019-04-26T21:55:06.608Z,46.90
2019-04-26T22:00:30.353Z,46.70
2019-04-26T22:05:35.257Z,47.00
2019-04-26T22:10:43.748Z,47.60
2019-04-26T22:16:07.750Z,47.80
2019-04-26T22:21:29.915Z,48.10
2019-04-26T22:26:38.096Z,48.30
2019-04-26T22:31:42.521Z,48.40
2019-04-26T22:36:45.971Z,48.80
2019-04-26T22:41:49.751Z,48.90
2019-04-26T22:47:07.788Z,49.00
2019-04-26T22:52:16.195Z,49.20
2019-04-26T22:57:17.769Z,49.50
2019-04-26T23:02:24.662Z,49.70
2019-04-26T23:07:27.126Z,49.90
2019-04-26T23:12:53.956Z,50.00
2019-04-26T23:18:33.460Z,50.00
2019-04-26T23:23:40.928Z,49.70
2019-04-26T23:28:44.638Z,48.90
2019-04-26T23:33:47.943Z,48.90
2019-04-26T23:38:53.123Z,49.10
2019-04-26T23:44:03.013Z,48.80
2019-04-26T23:49:03.019Z,48.20
2019-04-26T23:54:06.829Z,49.40
2019-04-26T23:59:16.513Z,49.60
